Time;durP1;ratioP1;P1;durP2;ratioP2;P2;SDS_P1;SDS_P2;PMS_P1;PMS_P2;Temp;Humidity;BMP_temperature;BMP_pressure;BME280_temperature;BME280_humidity;BME280_pressure;Samples;Min_cycle;Max_cycle;Signal;HPM_P1;HPM_P2
2023/10/17 00:00:42;;;;;;;2.88;2.42;;;2.00;99.90;;;;;;4994686;28;20027;-78
2023/10/17 00:03:11;;;;;;;12.18;2.30;;;2.10;99.90;;;;;;4994007;28;20469;-78
2023/10/17 00:05:37;;;;;;;1.70;1.52;;;2.00;99.90;;;;;;4994280;28;20022;-78
2023/10/17 00:08:05;;;;;;;3.33;1.35;;;1.90;99.90;;;;;;4993206;28;20030;-78
2023/10/17 00:10:35;;;;;;;2.22;1.77;;;1.90;99.90;;;;;;4994348;28;20023;-78
2023/10/17 00:15:46;;;;;;;2.13;1.85;;;1.80;99.90;;;;;;4994576;28;20537;-78
2023/10/17 00:18:15;;;;;;;1.35;1.25;;;1.70;99.90;;;;;;4992479;28;20048;-78
2023/10/17 00:20:43;;;;;;;4.90;2.10;;;1.80;99.90;;;;;;4993861;28;20022;-77
2023/10/17 00:23:17;;;;;;;6.78;1.98;;;1.80;99.90;;;;;;4994375;28;20029;-77
2023/10/17 00:25:45;;;;;;;2.67;2.17;;;1.70;99.90;;;;;;4994185;28;20102;-77
2023/10/17 00:28:11;;;;;;;2.85;1.65;;;1.80;99.90;;;;;;5009471;28;20030;-78
2023/10/17 00:30:38;;;;;;;3.72;1.90;;;1.70;99.90;;;;;;4993886;28;20026;-78
2023/10/17 00:33:09;;;;;;;2.70;1.42;;;1.80;99.90;;;;;;5009160;28;20029;-78
2023/10/17 00:35:39;;;;;;;3.08;1.55;;;1.80;99.90;;;;;;4992626;28;20026;-78
2023/10/17 00:38:08;;;;;;;2.17;1.90;;;1.70;99.90;;;;;;4994094;28;20073;-78
2023/10/17 00:40:52;;;;;;;2.95;1.85;;;1.70;99.90;;;;;;4992750;28;20061;-78
2023/10/17 00:43:19;;;;;;;8.90;2.50;;;1.70;99.90;;;;;;4993018;28;20034;-78
2023/10/17 00:45:46;;;;;;;2.92;1.67;;;1.70;99.90;;;;;;5008951;28;20088;-78
2023/10/17 00:48:18;;;;;;;3.25;1.90;;;1.70;99.90;;;;;;4992731;28;20037;-78
2023/10/17 00:50:46;;;;;;;4.85;1.92;;;2.20;99.90;;;;;;4992472;28;20053;-78
2023/10/17 00:53:12;;;;;;;4.35;2.00;;;1.70;99.90;;;;;;4993547;28;20375;-78
2023/10/17 00:55:38;;;;;;;1.48;1.38;;;1.70;99.90;;;;;;4993604;28;20030;-78
2023/10/17 00:58:08;;;;;;;3.08;1.65;;;1.80;99.90;;;;;;4993802;28;20023;-78
2023/10/17 01:00:36;;;;;;;1.88;1.45;;;1.80;99.90;;;;;;5008636;28;20022;-77
2023/10/17 01:03:10;;;;;;;4.85;1.38;;;1.90;99.90;;;;;;4992511;28;20406;-78
2023/10/17 01:08:39;;;;;;;2.65;1.48;;;1.70;99.90;;;;;;4993949;28;20146;-78
2023/10/17 01:11:27;;;;;;;5.20;1.85;;;1.70;99.90;;;;;;4993313;28;20069;-78
2023/10/17 01:13:54;;;;;;;6.85;1.58;;;1.70;99.90;;;;;;4993453;28;20064;-78
2023/10/17 01:16:20;;;;;;;1.75;1.58;;;1.70;99.90;;;;;;4993044;28;20027;-78
2023/10/17 01:18:47;;;;;;;2.72;1.63;;;1.70;99.90;;;;;;5008684;28;20030;-78
2023/10/17 01:21:21;;;;;;;3.72;1.42;;;1.70;99.90;;;;;;4997673;28;20022;-80
2023/10/17 01:23:48;;;;;;;2.42;1.63;;;1.60;99.90;;;;;;5006274;28;20077;-79
2023/10/17 01:26:14;;;;;;;2.63;1.60;;;1.70;99.90;;;;;;5011202;28;20397;-79
2023/10/17 01:28:47;;;;;;;1.63;1.20;;;1.60;99.90;;;;;;4993704;28;20101;-79
2023/10/17 01:31:22;;;;;;;2.05;1.85;;;1.70;99.90;;;;;;4992068;28;20057;-78
2023/10/17 01:33:51;;;;;;;5.60;1.98;;;1.70;99.90;;;;;;4992156;28;20018;-78
2023/10/17 01:36:17;;;;;;;2.33;1.33;;;1.70;99.90;;;;;;4993244;28;20046;-77
2023/10/17 01:38:46;;;;;;;2.20;1.60;;;1.70;99.90;;;;;;4993320;28;20054;-78
2023/10/17 01:41:18;;;;;;;1.27;1.17;;;1.70;99.90;;;;;;4993024;28;20098;-78
2023/10/17 01:43:48;;;;;;;1.77;1.42;;;1.70;99.90;;;;;;4992046;28;20034;-77
2023/10/17 01:46:24;;;;;;;2.22;1.70;;;1.80;99.90;;;;;;4991707;28;20030;-78
2023/10/17 01:48:55;;;;;;;2.78;1.65;;;1.70;99.90;;;;;;5008574;28;20054;-78
2023/10/17 01:51:23;;;;;;;12.10;2.58;;;1.70;99.90;;;;;;4991912;28;20034;-77
2023/10/17 01:53:50;;;;;;;7.22;2.78;;;1.70;99.90;;;;;;4991887;28;20035;-78
2023/10/17 01:56:16;;;;;;;2.72;1.77;;;1.70;99.90;;;;;;4991527;28;20027;-78
2023/10/17 01:58:51;;;;;;;2.83;1.33;;;1.70;99.90;;;;;;4991742;28;20022;-77
2023/10/17 02:01:31;;;;;;;1.88;1.58;;;1.70;99.90;;;;;;4993038;28;20514;-78
2023/10/17 02:04:03;;;;;;;2.95;1.77;;;1.80;99.90;;;;;;5008372;28;20030;-78
2023/10/17 02:06:33;;;;;;;2.45;1.60;;;1.80;99.90;;;;;;4991701;28;20678;-78
2023/10/17 02:09:00;;;;;;;1.45;1.38;;;1.90;99.90;;;;;;4992056;28;20061;-78
2023/10/17 02:11:26;;;;;;;2.33;1.40;;;1.90;99.90;;;;;;4992038;28;20568;-77
2023/10/17 02:13:57;;;;;;;2.42;1.52;;;1.80;99.90;;;;;;4992540;28;20026;-77
2023/10/17 02:16:32;;;;;;;2.60;1.75;;;1.80;99.90;;;;;;4991893;28;20034;-79
2023/10/17 02:19:05;;;;;;;2.25;1.30;;;1.90;99.90;;;;;;5008441;28;20058;-79
2023/10/17 02:21:31;;;;;;;5.43;1.63;;;1.80;99.90;;;;;;4992361;28;20442;-79
2023/10/17 02:23:57;;;;;;;2.35;1.13;;;1.80;99.90;;;;;;4992634;28;20084;-79
2023/10/17 02:26:23;;;;;;;3.70;1.42;;;1.90;99.90;;;;;;4994274;28;20033;-79
2023/10/17 02:29:11;;;;;;;2.92;1.50;;;1.90;99.90;;;;;;4992293;28;20478;-78
2023/10/17 02:31:37;;;;;;;1.70;1.60;;;1.90;99.90;;;;;;4993402;28;20100;-79
2023/10/17 02:34:03;;;;;;;2.28;1.48;;;1.90;99.90;;;;;;5009616;28;20034;-77
2023/10/17 02:36:29;;;;;;;2.60;1.98;;;1.90;99.90;;;;;;4993427;28;20379;-78
2023/10/17 02:38:55;;;;;;;6.15;2.35;;;1.90;99.90;;;;;;4992982;28;20678;-78
2023/10/17 02:41:22;;;;;;;1.65;1.48;;;1.80;99.90;;;;;;4994380;28;20444;-78
2023/10/17 02:43:54;;;;;;;2.95;1.63;;;1.80;99.90;;;;;;5012865;28;20030;-78
2023/10/17 02:46:21;;;;;;;1.48;1.38;;;1.80;99.90;;;;;;5013053;28;20029;-78
2023/10/17 02:48:47;;;;;;;2.58;1.45;;;1.80;99.90;;;;;;4997761;28;20054;-78
2023/10/17 02:53:50;;;;;;;2.15;1.83;;;1.80;99.90;;;;;;5003065;28;20026;-79
2023/10/17 02:56:19;;;;;;;2.78;1.77;;;1.70;99.90;;;;;;5001129;28;20405;-78
2023/10/17 02:58:50;;;;;;;1.80;1.40;;;1.70;99.90;;;;;;5005312;28;20022;-79
2023/10/17 03:01:18;;;;;;;1.63;1.50;;;1.70;99.90;;;;;;5103722;23;20576;-80
2023/10/17 03:03:49;;;;;;;1.88;1.40;;;1.90;99.90;;;;;;4995163;28;20076;-80
2023/10/17 03:06:18;;;;;;;1.75;1.45;;;3.80;99.90;;;;;;4995256;28;20030;-80
2023/10/17 03:08:51;;;;;;;2.58;1.48;;;1.80;99.90;;;;;;5011368;28;20037;-80
2023/10/17 03:11:35;;;;;;;2.58;1.83;;;1.60;99.90;;;;;;4994922;28;20080;-81
2023/10/17 03:14:12;;;;;;;1.60;1.40;;;2.50;99.90;;;;;;4994905;28;20027;-81
2023/10/17 03:16:42;;;;;;;1.75;1.30;;;1.60;99.90;;;;;;4994972;28;20438;-79
2023/10/17 03:19:11;;;;;;;3.55;1.35;;;1.90;99.90;;;;;;4995088;28;20018;-80
2023/10/17 03:21:43;;;;;;;2.83;2.10;;;1.60;99.90;;;;;;4996031;28;20044;-80
2023/10/17 03:24:09;;;;;;;1.92;1.60;;;2.00;99.90;;;;;;4994760;28;20026;-81
2023/10/17 03:26:41;;;;;;;4.63;1.45;;;0.60;99.90;;;;;;4994667;28;20030;-81
2023/10/17 03:29:13;;;;;;;1.70;1.60;;;1.70;99.90;;;;;;4994749;28;20513;-80
2023/10/17 03:31:42;;;;;;;3.38;1.45;;;1.70;99.90;;;;;;4994536;28;20042;-80
2023/10/17 03:34:12;;;;;;;3.80;1.85;;;3.70;99.90;;;;;;4994536;28;20029;-80
2023/10/17 03:36:41;;;;;;;4.60;1.23;;;3.40;99.90;;;;;;4994476;28;20058;-80
2023/10/17 03:39:21;;;;;;;1.50;1.25;;;3.80;99.90;;;;;;4995870;28;20029;-79
2023/10/17 03:41:48;;;;;;;1.67;1.58;;;1.70;99.90;;;;;;4995566;28;20026;-80
2023/10/17 03:44:18;;;;;;;3.63;1.40;;;0.10;99.90;;;;;;4994458;28;20034;-80
2023/10/17 03:46:48;;;;;;;4.05;1.33;;;3.00;99.90;;;;;;4994382;28;20498;-80
2023/10/17 03:49:18;;;;;;;1.70;1.30;;;3.70;99.90;;;;;;4994822;28;20120;-80
2023/10/17 03:51:54;;;;;;;1.42;1.27;;;1.80;99.90;;;;;;4994454;28;20038;-80
2023/10/17 03:54:22;;;;;;;2.60;1.50;;;2.00;99.90;;;;;;4994388;28;20022;-80
2023/10/17 03:57:02;;;;;;;2.88;1.80;;;3.90;99.90;;;;;;4994128;28;20030;-80
2023/10/17 03:59:38;;;;;;;2.72;2.03;;;3.60;99.90;;;;;;5010594;28;20360;-79
2023/10/17 04:02:04;;;;;;;1.83;1.55;;;2.20;99.90;;;;;;4993969;28;20089;-80
2023/10/17 04:04:35;;;;;;;4.35;1.65;;;2.90;99.90;;;;;;4994024;28;20030;-80
2023/10/17 04:07:08;;;;;;;2.60;2.03;;;1.30;99.90;;;;;;4993963;28;20026;-80
2023/10/17 04:12:25;;;;;;;2.67;1.92;;;2.00;99.90;;;;;;4994991;28;20041;-80
2023/10/17 04:14:58;;;;;;;3.13;2.08;;;2.10;99.90;;;;;;4994186;28;20022;-80
2023/10/17 04:17:29;;;;;;;8.68;2.05;;;2.00;99.90;;;;;;5006924;28;20018;-80
2023/10/17 04:19:58;;;;;;;4.95;3.05;;;1.20;99.90;;;;;;5009161;28;20023;-80
2023/10/17 04:22:29;;;;;;;5.82;1.83;;;1.10;99.90;;;;;;5009237;28;20117;-80
2023/10/17 04:25:00;;;;;;;1.98;1.58;;;-0.40;99.90;;;;;;5003806;28;20450;-79
2023/10/17 04:27:31;;;;;;;1.88;1.52;;;0.80;99.90;;;;;;4993733;28;20023;-80
2023/10/17 04:29:58;;;;;;;3.05;1.85;;;1.90;99.90;;;;;;4994309;28;20037;-80
2023/10/17 04:32:34;;;;;;;9.00;2.00;;;3.10;99.90;;;;;;4994331;28;20027;-80
2023/10/17 04:35:02;;;;;;;3.42;1.80;;;3.20;99.90;;;;;;4991850;28;20410;-80
2023/10/17 04:37:37;;;;;;;4.60;2.25;;;3.10;99.90;;;;;;4975498;28;20053;-79
2023/10/17 04:42:56;;;;;;;3.08;2.28;;;1.10;99.90;;;;;;4975267;28;20042;-80
2023/10/17 04:45:28;;;;;;;3.15;2.55;;;1.20;99.90;;;;;;4974300;28;20410;-81
2023/10/17 04:48:17;;;;;;;4.07;2.50;;;3.40;99.90;;;;;;4974198;28;20027;-81
2023/10/17 04:50:55;;;;;;;6.97;1.77;;;3.20;99.90;;;;;;4974755;28;20049;-79
2023/10/17 04:53:27;;;;;;;3.20;2.10;;;2.70;99.90;;;;;;4974179;28;20487;-80
2023/10/17 04:58:39;;;;;;;2.80;1.88;;;0.60;99.90;;;;;;4995984;28;20446;-80
2023/10/17 05:03:46;;;;;;;3.13;1.50;;;2.50;99.90;;;;;;4994849;28;20034;-80
2023/10/17 06:17:59;;;;;;;5.95;3.30;;;1.40;99.90;;;;;;4998094;28;20109;-79
2023/10/17 06:24:05;;;;;;;3.97;2.75;;;1.50;99.90;;;;;;5014151;28;20032;-80
2023/10/17 06:31:42;;;;;;;3.55;2.65;;;2.20;99.90;;;;;;5219993;23;20073;-80
2023/10/17 06:34:08;;;;;;;2.90;2.20;;;2.60;99.90;;;;;;5013479;28;20057;-81
2023/10/17 06:36:39;;;;;;;5.40;1.65;;;4.20;99.90;;;;;;4999017;28;20094;-80
2023/10/17 06:39:13;;;;;;;2.20;1.98;;;2.20;99.90;;;;;;5012573;28;20011;-81
2023/10/17 06:41:44;;;;;;;7.03;2.53;;;0.60;99.90;;;;;;4996262;28;20038;-80
2023/10/17 06:44:21;;;;;;;6.97;2.63;;;2.10;99.90;;;;;;4998583;28;20038;-80
2023/10/17 06:46:58;;;;;;;12.48;3.22;;;0.60;99.90;;;;;;4999381;28;20078;-81
2023/10/17 06:50:04;;;;;;;4.32;1.98;;;3.00;99.90;;;;;;4999168;28;20146;-80
2023/10/17 06:52:19;;;;;;;6.05;2.15;;;3.50;99.90;;;;;;4998307;28;20034;-82
2023/10/17 06:54:49;;;;;;;2.80;2.40;;;2.50;99.90;;;;;;4996569;28;20054;-80
2023/10/17 06:57:19;;;;;;;5.70;2.38;;;2.70;99.90;;;;;;5012848;28;20027;-80
2023/10/17 06:59:51;;;;;;;4.13;2.90;;;2.60;99.90;;;;;;4991364;28;20077;-80
2023/10/17 07:02:34;;;;;;;10.55;2.58;;;1.60;99.90;;;;;;4977818;28;20030;-81
2023/10/17 07:05:01;;;;;;;4.00;1.63;;;4.20;99.90;;;;;;4977222;28;20030;-81
2023/10/17 07:07:40;;;;;;;5.30;2.08;;;3.00;99.90;;;;;;4976764;28;20117;-82
2023/10/17 07:10:16;;;;;;;3.00;1.80;;;3.00;99.90;;;;;;4984794;28;20495;-80
2023/10/17 07:12:47;;;;;;;3.20;1.92;;;3.10;99.90;;;;;;4997893;28;20046;-81
2023/10/17 07:15:25;;;;;;;2.90;2.00;;;3.20;99.90;;;;;;4997363;28;20113;-80
2023/10/17 07:23:19;;;;;;;2.58;2.35;;;3.70;99.90;;;;;;4996494;28;20088;-80
2023/10/17 07:25:49;;;;;;;3.20;2.13;;;3.60;99.90;;;;;;4994977;28;20030;-80
2023/10/17 07:28:22;;;;;;;3.58;2.13;;;3.90;99.90;;;;;;4995023;28;20046;-80
2023/10/17 07:30:57;;;;;;;1.90;1.55;;;3.80;99.90;;;;;;4996257;28;20521;-81
2023/10/17 07:33:24;;;;;;;4.88;2.42;;;4.00;99.90;;;;;;4998110;28;20046;-81
2023/10/17 07:35:59;;;;;;;2.40;1.60;;;5.80;99.90;;;;;;5014171;28;20022;-81
2023/10/17 07:38:28;;;;;;;3.57;1.80;;;6.10;99.90;;;;;;4991873;28;20027;-83
2023/10/17 07:41:32;;;;;;;5.80;2.08;;;3.90;99.90;;;;;;4989323;28;20503;-83
2023/10/17 07:44:09;;;;;;;4.07;2.05;;;4.30;99.90;;;;;;4992378;28;20015;-84
2023/10/17 07:46:35;;;;;;;6.72;2.90;;;4.50;99.90;;;;;;4992773;28;20043;-83
2023/10/17 07:49:26;;;;;;;3.08;2.53;;;4.80;99.90;;;;;;4994740;28;20057;-82
2023/10/17 07:51:58;;;;;;;4.25;2.05;;;4.70;99.90;;;;;;5009804;28;20097;-83
2023/10/17 07:54:38;;;;;;;2.55;1.98;;;5.10;99.90;;;;;;5011344;28;20039;-81
2023/10/17 07:57:17;;;;;;;2.72;1.67;;;4.80;99.90;;;;;;4994292;28;20022;-80
2023/10/17 07:59:50;;;;;;;3.28;2.20;;;6.10;99.90;;;;;;4986507;28;20469;-80
2023/10/17 08:02:20;;;;;;;2.60;1.50;;;6.80;99.90;;;;;;4984863;28;20014;-79
2023/10/17 08:04:49;;;;;;;1.73;1.63;;;6.20;99.90;;;;;;4976688;28;20031;-80
2023/10/17 08:07:16;;;;;;;2.40;2.20;;;5.90;99.90;;;;;;4973128;28;20027;-78
2023/10/17 08:09:50;;;;;;;2.67;2.45;;;9.10;99.90;;;;;;4973224;28;20089;-80
2023/10/17 08:12:22;;;;;;;4.22;1.60;;;10.00;99.90;;;;;;4974175;28;20494;-80
2023/10/17 08:15:05;;;;;;;2.80;1.70;;;9.30;96.50;;;;;;4973577;28;20046;-79
2023/10/17 08:17:34;;;;;;;2.85;1.10;;;8.70;96.70;;;;;;4990402;28;20026;-79
2023/10/17 08:20:02;;;;;;;1.48;1.35;;;8.30;96.90;;;;;;4974485;28;20027;-80
2023/10/17 08:22:53;;;;;;;1.85;1.58;;;8.10;98.90;;;;;;4975256;28;20023;-80
2023/10/17 08:25:14;;;;;;;2.05;1.38;;;8.00;99.70;;;;;;4975121;28;20027;-80
2023/10/17 08:30:17;;;;;;;1.42;1.15;;;8.00;99.90;;;;;;4974847;28;20062;-80
2023/10/17 08:35:51;;;;;;;1.83;1.42;;;7.90;99.90;;;;;;4992387;28;20018;-80
2023/10/17 08:38:17;;;;;;;2.80;1.50;;;8.00;99.90;;;;;;4976033;28;20490;-80
2023/10/17 08:40:43;;;;;;;1.85;1.52;;;7.90;99.90;;;;;;4974454;28;20045;-80
2023/10/17 08:43:14;;;;;;;3.75;1.75;;;8.00;99.90;;;;;;4989883;28;20047;-79
2023/10/17 08:45:41;;;;;;;1.42;1.23;;;8.20;99.90;;;;;;4973698;28;20035;-80
2023/10/17 08:48:11;;;;;;;2.05;1.38;;;8.40;99.90;;;;;;4974515;28;20022;-80
2023/10/17 08:50:39;;;;;;;2.80;1.50;;;8.50;99.90;;;;;;4972887;28;20027;-79
2023/10/17 08:55:44;;;;;;;1.45;1.27;;;8.70;99.90;;;;;;4977177;28;20027;-80
2023/10/17 08:58:10;;;;;;;2.25;1.55;;;8.80;99.90;;;;;;4998475;28;20033;-79
2023/10/17 09:03:28;;;;;;;2.92;1.30;;;9.10;99.90;;;;;;4996134;28;20054;-78
2023/10/17 09:06:06;;;;;;;3.03;1.27;;;9.20;99.60;;;;;;4999065;28;20045;-80
2023/10/17 09:09:17;;;;;;;2.03;1.40;;;9.30;98.90;;;;;;5004440;28;20026;-81
2023/10/17 09:11:31;;;;;;;;;;;9.50;98.20;;;;;;4992572;28;20134;-82
2023/10/17 09:14:17;;;;;;;2.15;0.90;;;9.60;97.40;;;;;;5004914;28;20097;-80
2023/10/17 09:17:13;;;;;;;3.60;1.13;;;9.80;97.50;;;;;;5020030;28;20022;-81
2023/10/17 09:19:47;;;;;;;0.80;0.73;;;10.00;94.60;;;;;;5004480;28;20034;-82
2023/10/17 09:22:17;;;;;;;1.23;0.88;;;10.10;94.60;;;;;;5005220;28;20026;-83
2023/10/17 09:24:50;;;;;;;1.13;0.77;;;10.20;93.00;;;;;;5001747;28;20033;-80
2023/10/17 09:27:18;;;;;;;1.80;0.90;;;10.10;91.90;;;;;;5001414;28;20026;-80
2023/10/17 09:29:51;;;;;;;0.82;0.82;;;10.30;91.60;;;;;;5002788;28;20026;-81
2023/10/17 09:32:36;;;;;;;1.20;0.60;;;10.30;90.40;;;;;;5004592;28;20034;-83
2023/10/17 09:35:18;;;;;;;1.00;0.90;;;10.50;90.90;;;;;;5003671;28;20022;-80
2023/10/17 09:37:51;;;;;;;1.67;0.57;;;10.50;90.40;;;;;;4999645;28;20099;-79
2023/10/17 09:40:30;;;;;;;1.02;0.93;;;10.60;89.40;;;;;;4992991;28;20018;-80
2023/10/17 09:42:56;;;;;;;1.30;0.68;;;10.80;90.20;;;;;;4985044;28;20618;-80
2023/10/17 09:45:22;;;;;;;0.60;0.50;;;10.80;84.10;;;;;;4987020;28;20471;-79
2023/10/17 09:47:58;;;;;;;1.40;0.80;;;11.00;85.80;;;;;;4995013;28;20050;-80
2023/10/17 09:50:25;;;;;;;2.83;0.80;;;11.10;85.80;;;;;;4997842;28;20023;-80
2023/10/17 09:52:54;;;;;;;3.35;1.20;;;11.20;84.20;;;;;;5000459;28;20521;-81
2023/10/17 09:55:24;;;;;;;2.13;0.82;;;11.30;82.00;;;;;;5002559;28;20022;-78
2023/10/17 09:58:10;;;;;;;0.88;0.77;;;11.40;80.80;;;;;;5000542;28;20025;-80
2023/10/17 10:00:36;;;;;;;;;;;11.30;80.40;;;;;;5017709;28;20073;-80
2023/10/17 10:03:04;;;;;;;1.17;0.57;;;11.90;93.40;;;;;;5001145;28;20369;-82
2023/10/17 10:05:29;;;;;;;1.13;0.90;;;11.90;82.70;;;;;;5001942;28;20031;-82
2023/10/17 10:08:01;;;;;;;1.20;1.08;;;11.70;82.10;;;;;;5001109;28;20037;-80
2023/10/17 10:10:49;;;;;;;0.65;0.60;;;11.60;78.90;;;;;;5002111;28;20066;-80
2023/10/17 10:13:15;;;;;;;1.38;1.27;;;11.70;79.20;;;;;;5001642;28;20019;-80
2023/10/17 10:15:58;;;;;;;0.85;0.85;;;11.80;78.00;;;;;;5000628;28;20517;-80
2023/10/17 10:18:36;;;;;;;2.30;1.15;;;11.90;78.00;;;;;;5001260;28;20380;-80
2023/10/17 10:21:07;;;;;;;1.58;1.13;;;11.80;78.60;;;;;;5001619;28;20052;-80
2023/10/17 10:23:41;;;;;;;1.00;0.80;;;11.80;79.60;;;;;;5008852;28;20050;-80
2023/10/17 10:26:13;;;;;;;5.18;1.00;;;12.00;78.70;;;;;;5009040;28;20030;-83
2023/10/17 10:28:40;;;;;;;1.08;0.98;;;11.90;76.80;;;;;;5010499;28;20057;-81
2023/10/17 10:31:21;;;;;;;0.85;0.70;;;11.80;76.00;;;;;;5007620;28;20084;-84
2023/10/17 10:33:49;;;;;;;1.80;1.10;;;12.20;89.20;;;;;;5006616;28;20110;-84
2023/10/17 10:36:25;;;;;;;1.85;1.35;;;12.50;75.30;;;;;;5007476;28;20026;-85
2023/10/17 10:38:53;;;;;;;1.10;1.00;;;12.40;73.30;;;;;;5018040;28;20049;-83
2023/10/17 10:41:20;;;;;;;5.13;1.33;;;12.40;72.10;;;;;;5005960;28;20034;-82
2023/10/17 10:43:47;;;;;;;1.15;0.75;;;12.30;71.10;;;;;;5006868;28;20061;-79
2023/10/17 10:46:14;;;;;;;1.35;0.80;;;12.40;70.60;;;;;;5007864;28;20125;-81
2023/10/17 10:48:47;;;;;;;1.65;1.20;;;12.30;71.20;;;;;;5007973;28;20098;-82
2023/10/17 10:51:16;;;;;;;0.95;0.85;;;12.30;72.50;;;;;;5008015;28;20031;-82
2023/10/17 10:53:44;;;;;;;1.80;0.90;;;12.40;71.90;;;;;;5008902;28;20033;-81
2023/10/17 10:56:11;;;;;;;0.77;0.68;;;12.30;68.00;;;;;;5007668;28;20046;-79
2023/10/17 10:58:47;;;;;;;2.38;0.88;;;12.30;70.10;;;;;;5024353;28;20464;-81
2023/10/17 11:01:14;;;;;;;1.00;0.85;;;12.50;72.40;;;;;;5007877;28;20045;-83
2023/10/17 11:03:42;;;;;;;0.77;0.77;;;12.60;70.40;;;;;;5006704;28;20430;-83
2023/10/17 11:06:10;;;;;;;1.05;0.75;;;12.50;70.50;;;;;;5006316;28;20026;-78
2023/10/17 11:08:40;;;;;;;2.03;1.02;;;12.50;68.70;;;;;;5022598;28;20037;-81
2023/10/17 11:11:06;;;;;;;0.90;0.73;;;12.60;68.00;;;;;;5006749;28;20102;-79
2023/10/17 11:13:42;;;;;;;1.20;0.77;;;12.60;68.40;;;;;;5003954;28;20081;-78
2023/10/17 11:16:08;;;;;;;0.70;0.70;;;12.60;65.90;;;;;;5005665;28;20110;-81
2023/10/17 11:18:38;;;;;;;1.15;0.70;;;12.70;65.00;;;;;;4989851;28;20047;-81
2023/10/17 11:21:05;;;;;;;2.22;1.02;;;12.70;65.60;;;;;;4988081;28;20130;-81
2023/10/17 11:23:33;;;;;;;2.63;1.98;;;12.40;66.50;;;;;;4987084;28;20107;-80
2023/10/17 11:26:00;;;;;;;1.02;0.93;;;12.40;69.40;;;;;;4985363;28;20395;-80
2023/10/17 11:28:27;;;;;;;1.17;0.90;;;12.30;68.20;;;;;;4985966;28;20035;-82
2023/10/17 11:30:53;;;;;;;1.33;1.00;;;12.20;68.30;;;;;;4984657;28;20526;-80
2023/10/17 11:33:29;;;;;;;1.85;1.27;;;12.20;68.70;;;;;;4985328;28;20027;-82
2023/10/17 11:36:03;;;;;;;1.65;1.40;;;12.10;68.90;;;;;;4987447;28;20023;-80
2023/10/17 11:38:35;;;;;;;1.15;1.00;;;12.10;70.30;;;;;;4985154;28;20039;-82
2023/10/17 11:41:05;;;;;;;1.65;1.20;;;12.00;70.30;;;;;;4985322;28;20027;-80
2023/10/17 11:43:35;;;;;;;1.08;0.95;;;12.10;71.50;;;;;;4985279;28;20090;-82
2023/10/17 11:46:03;;;;;;;2.10;1.30;;;12.00;72.10;;;;;;4985980;28;20399;-82
2023/10/17 11:48:31;;;;;;;1.98;0.88;;;11.90;72.40;;;;;;4988350;28;20470;-82
2023/10/17 11:51:28;;;;;;;1.17;0.70;;;12.00;74.30;;;;;;4986731;28;20027;-80
2023/10/17 11:54:04;;;;;;;3.40;1.00;;;12.10;72.10;;;;;;4984555;28;20062;-80
2023/10/17 11:56:33;;;;;;;;;;;12.20;68.90;;;;;;4985609;28;20534;-80
2023/10/17 11:59:01;;;;;;;2.45;0.95;;;12.10;68.80;;;;;;4986523;28;19917;-80
2023/10/17 12:01:28;;;;;;;1.38;1.27;;;12.20;68.50;;;;;;4984553;28;20042;-83
2023/10/17 12:03:57;;;;;;;2.17;1.77;;;12.10;68.00;;;;;;4985203;28;20031;-80
2023/10/17 12:06:28;;;;;;;1.60;1.50;;;12.00;70.00;;;;;;4998909;28;20094;-80
2023/10/17 12:08:56;;;;;;;1.67;1.30;;;12.10;71.10;;;;;;4999479;28;20061;-81
2023/10/17 12:11:24;;;;;;;2.88;1.00;;;12.20;70.00;;;;;;4984736;28;20081;-81
2023/10/17 12:13:53;;;;;;;1.25;1.00;;;12.10;69.60;;;;;;5000594;28;20023;-80
2023/10/17 12:16:25;;;;;;;1.30;0.93;;;12.20;69.30;;;;;;4983633;28;20023;-82
2023/10/17 12:18:52;;;;;;;7.05;1.13;;;12.20;71.70;;;;;;5001479;28;20086;-81
2023/10/17 12:21:18;;;;;;;1.40;1.00;;;12.40;71.20;;;;;;4987003;28;20026;-80
2023/10/17 12:23:43;;;;;;;1.13;0.93;;;12.40;69.10;;;;;;4984712;28;20026;-80
2023/10/17 12:26:17;;;;;;;1.45;0.68;;;12.20;70.40;;;;;;4986348;28;20039;-79
2023/10/17 12:28:42;;;;;;;1.00;0.95;;;12.10;70.90;;;;;;4999928;28;20674;-80
2023/10/17 12:31:09;;;;;;;2.35;1.30;;;12.30;72.00;;;;;;4985147;28;20051;-81
2023/10/17 12:33:36;;;;;;;5.93;0.70;;;12.40;72.60;;;;;;4986186;28;20046;-80
2023/10/17 12:36:04;;;;;;;5.95;0.90;;;12.40;68.30;;;;;;4982890;28;20029;-82
2023/10/17 12:38:34;;;;;;;1.10;0.70;;;12.30;69.00;;;;;;4998865;28;20407;-82
2023/10/17 12:41:03;;;;;;;1.10;0.52;;;12.40;69.20;;;;;;4981891;28;20037;-81
2023/10/17 12:43:29;;;;;;;0.70;0.70;;;12.30;69.20;;;;;;5007020;28;20589;-79
2023/10/17 12:45:55;;;;;;;2.42;1.10;;;12.50;68.90;;;;;;5007291;28;20035;-79
2023/10/17 12:48:21;;;;;;;1.52;0.95;;;12.50;69.10;;;;;;4981070;28;20030;-79
2023/10/17 12:50:47;;;;;;;0.95;0.70;;;12.70;69.60;;;;;;4981013;28;20023;-79
2023/10/17 12:53:13;;;;;;;2.15;0.90;;;12.90;68.60;;;;;;4980343;28;20030;-80
2023/10/17 12:55:40;;;;;;;1.88;1.05;;;12.90;68.50;;;;;;4981818;28;20077;-81
2023/10/17 12:58:13;;;;;;;2.75;0.68;;;12.80;67.50;;;;;;4981970;28;20026;-81
2023/10/17 13:00:42;;;;;;;0.98;0.88;;;12.80;67.60;;;;;;4980235;28;20065;-84
2023/10/17 13:03:07;;;;;;;0.98;0.85;;;12.80;68.00;;;;;;4982817;28;20085;-81
2023/10/17 13:05:33;;;;;;;0.82;0.82;;;12.80;68.20;;;;;;4980518;28;20027;-78
2023/10/17 13:24:45;;;;;;;1.23;0.70;;;12.90;66.80;;;;;;5092190;27;20871;-81
2023/10/17 13:27:11;;;;;;;0.77;0.75;;;12.50;68.50;;;;;;5056370;28;20030;-81
2023/10/17 13:29:37;;;;;;;1.08;0.60;;;12.30;68.00;;;;;;5058622;28;20021;-79
2023/10/17 13:32:07;;;;;;;1.92;0.75;;;12.40;69.20;;;;;;5056797;28;20022;-79
2023/10/17 13:34:36;;;;;;;3.92;0.68;;;12.30;70.10;;;;;;5056260;28;20136;-81
2023/10/17 13:37:07;;;;;;;1.10;0.60;;;12.40;70.80;;;;;;5056565;28;20187;-82
2023/10/17 13:39:34;;;;;;;0.60;0.60;;;12.30;68.80;;;;;;5056658;28;20039;-80
2023/10/17 13:42:02;;;;;;;0.88;0.75;;;12.30;69.20;;;;;;5057985;28;20087;-80
2023/10/17 13:44:28;;;;;;;0.75;0.40;;;12.30;68.50;;;;;;5055453;28;20033;-79
2023/10/17 13:46:55;;;;;;;0.63;0.47;;;12.30;67.40;;;;;;5057766;28;20025;-80
2023/10/17 13:49:21;;;;;;;0.63;0.50;;;12.30;68.30;;;;;;5055728;28;20051;-79
2023/10/17 13:51:47;;;;;;;0.82;0.57;;;12.40;67.40;;;;;;5056558;28;20021;-79
2023/10/17 13:54:13;;;;;;;0.60;0.60;;;12.40;68.60;;;;;;5054456;28;20033;-80
2023/10/17 13:56:40;;;;;;;1.13;0.82;;;13.30;80.60;;;;;;5052625;28;20031;-80
2023/10/17 13:59:09;;;;;;;0.70;0.63;;;13.30;75.40;;;;;;5056461;28;20072;-80
2023/10/17 14:01:41;;;;;;;0.85;0.57;;;13.60;70.70;;;;;;5055870;28;20089;-81
2023/10/17 14:04:09;;;;;;;0.73;0.45;;;13.80;72.40;;;;;;5055818;28;20454;-82
2023/10/17 14:06:39;;;;;;;1.70;1.02;;;13.80;68.50;;;;;;5056648;28;20116;-82
2023/10/17 14:09:14;;;;;;;14.77;8.27;;;13.70;64.40;;;;;;5053880;28;20029;-82
2023/10/17 14:11:46;;;;;;;10.10;6.88;;;13.70;65.40;;;;;;5053935;28;20082;-80
2023/10/17 14:14:13;;;;;;;2.67;1.90;;;13.90;68.30;;;;;;5055924;28;20029;-82
2023/10/17 14:16:42;;;;;;;1.88;1.63;;;13.80;65.80;;;;;;5071820;28;20027;-82
2023/10/17 14:19:28;;;;;;;2.40;1.85;;;13.60;64.30;;;;;;5055386;28;20404;-84
2023/10/17 14:25:00;;;;;;;0.93;0.88;;;13.80;64.90;;;;;;5047951;28;20029;-83
2023/10/17 14:27:29;;;;;;;1.63;1.10;;;13.40;63.30;;;;;;5041128;28;20465;-83
2023/10/17 14:29:59;;;;;;;1.23;0.90;;;13.00;64.60;;;;;;5040923;28;20029;-83
2023/10/17 14:32:26;;;;;;;1.20;1.13;;;12.50;66.30;;;;;;5041286;28;20040;-83
2023/10/17 14:34:53;;;;;;;1.58;1.08;;;12.20;68.00;;;;;;5040700;28;20029;-83
2023/10/17 14:37:20;;;;;;;1.95;1.10;;;12.10;68.60;;;;;;5041118;28;20044;-82
2023/10/17 14:39:46;;;;;;;3.75;1.67;;;12.00;70.30;;;;;;5041422;28;20028;-83
2023/10/17 14:42:17;;;;;;;2.65;1.70;;;11.90;71.50;;;;;;5041415;28;20021;-83
2023/10/17 14:44:42;;;;;;;10.15;5.20;;;11.70;71.80;;;;;;5043192;28;20017;-83
2023/10/17 14:47:08;;;;;;;11.07;7.75;;;11.70;72.00;;;;;;5040929;28;20227;-82
2023/10/17 14:49:34;;;;;;;2.50;2.30;;;11.50;73.00;;;;;;5042573;28;20022;-82
2023/10/17 14:51:59;;;;;;;3.35;1.70;;;11.50;73.50;;;;;;5041103;28;20079;-81
2023/10/17 14:54:25;;;;;;;2.22;1.45;;;11.40;74.00;;;;;;5041385;28;20048;-82
2023/10/17 14:56:51;;;;;;;1.80;1.70;;;11.30;75.10;;;;;;5040923;28;20072;-81
2023/10/17 14:59:18;;;;;;;2.45;1.50;;;11.30;75.60;;;;;;5042725;28;20393;-83
2023/10/17 15:01:44;;;;;;;1.58;1.48;;;11.30;75.70;;;;;;5041791;28;20029;-83
2023/10/17 15:04:10;;;;;;;3.55;1.17;;;11.30;76.20;;;;;;5040726;28;20030;-82
2023/10/17 15:06:36;;;;;;;1.90;1.40;;;11.20;76.00;;;;;;5043224;28;20036;-82
2023/10/17 15:09:05;;;;;;;2.90;1.45;;;11.20;76.40;;;;;;5042628;28;20025;-82
2023/10/17 15:11:32;;;;;;;3.08;1.73;;;11.20;77.90;;;;;;5042997;28;20025;-81
2023/10/17 15:13:59;;;;;;;3.33;1.67;;;11.10;78.60;;;;;;5042131;28;20048;-84
2023/10/17 15:16:25;;;;;;;1.98;1.85;;;11.10;79.70;;;;;;5041300;28;20377;-83
2023/10/17 15:18:51;;;;;;;4.47;2.33;;;11.00;79.40;;;;;;5040971;28;20029;-82
2023/10/17 15:21:19;;;;;;;2.60;2.28;;;11.00;80.00;;;;;;5040441;28;20499;-82
2023/10/17 15:23:44;;;;;;;3.88;1.85;;;11.00;80.10;;;;;;5041252;28;20084;-82
2023/10/17 15:26:10;;;;;;;2.53;1.83;;;10.90;80.50;;;;;;5041409;28;20025;-81